createdAt,value
2022-12-09T00:01:14.148Z,23.63
2022-12-09T00:03:41.918Z,23.65
2022-12-09T00:06:15.515Z,25.00
2022-12-09T00:08:43.049Z,22.60
2022-12-09T00:11:10.184Z,22.65
2022-12-09T00:13:37.428Z,21.45
2022-12-09T00:16:09.031Z,22.13
2022-12-09T00:18:36.767Z,24.17
2022-12-09T00:21:25.179Z,22.85
2022-12-09T00:23:54.260Z,22.77
2022-12-09T00:26:22.793Z,23.55
2022-12-09T00:28:50.883Z,25.27
2022-12-09T00:31:21.589Z,22.98
2022-12-09T00:33:48.693Z,22.25
2022-12-09T00:36:18.429Z,25.23
2022-12-09T00:38:45.796Z,23.13
2022-12-09T00:41:14.163Z,23.15
2022-12-09T00:43:42.384Z,25.15
2022-12-09T00:46:10.608Z,23.48
2022-12-09T00:48:38.692Z,23.30
2022-12-09T00:51:11.264Z,23.80
2022-12-09T00:53:39.123Z,24.63
2022-12-09T00:56:07.015Z,24.52
2022-12-09T00:58:34.012Z,24.80
2022-12-09T01:01:01.282Z,24.85
2022-12-09T01:03:28.449Z,25.13
2022-12-09T01:05:55.895Z,24.80
2022-12-09T01:08:24.370Z,25.33
2022-12-09T01:10:51.328Z,23.58
2022-12-09T01:13:18.236Z,23.30
2022-12-09T01:15:45.423Z,22.17
2022-12-09T01:18:14.229Z,23.17
2022-12-09T01:20:41.185Z,24.63
2022-12-09T01:23:08.528Z,23.00
2022-12-09T01:25:37.590Z,23.88
2022-12-09T01:28:04.556Z,23.30
2022-12-09T01:30:31.451Z,22.80
2022-12-09T01:32:58.376Z,24.98
2022-12-09T01:35:25.578Z,25.05
2022-12-09T01:37:52.460Z,24.27
2022-12-09T01:40:19.647Z,23.30
2022-12-09T01:42:46.870Z,24.98
2022-12-09T01:45:23.559Z,22.27
2022-12-09T01:48:05.647Z,22.02
2022-12-09T01:50:35.566Z,24.05
2022-12-09T01:53:02.690Z,22.88
2022-12-09T01:55:29.977Z,25.30
2022-12-09T01:57:57.052Z,23.45
2022-12-09T02:00:24.135Z,24.13
2022-12-09T02:02:52.375Z,23.63
2022-12-09T02:05:24.426Z,22.23
2022-12-09T02:10:19.407Z,21.65
2022-12-09T02:13:36.580Z,22.35
2022-12-09T02:16:09.855Z,20.80
2022-12-09T02:18:52.454Z,21.55
2022-12-09T02:21:42.252Z,19.52
2022-12-09T02:24:17.998Z,20.98
2022-12-09T02:26:51.785Z,24.13
2022-12-09T02:29:38.968Z,20.48
2022-12-09T02:32:06.126Z,21.85
2022-12-09T02:34:35.793Z,21.90
2022-12-09T02:37:12.033Z,21.77
2022-12-09T02:39:44.725Z,20.83
2022-12-09T02:42:17.071Z,22.40
2022-12-09T02:44:47.556Z,22.70
2022-12-09T02:47:18.426Z,22.52
2022-12-09T02:49:50.612Z,20.42
2022-12-09T02:54:47.073Z,22.33
2022-12-09T02:59:48.168Z,21.88
2022-12-09T03:02:29.236Z,23.02
2022-12-09T03:05:19.819Z,23.90
2022-12-09T03:10:31.671Z,22.85
2022-12-09T03:13:11.816Z,22.70
2022-12-09T03:15:42.280Z,20.77
2022-12-09T03:18:13.412Z,21.48
2022-12-09T03:20:42.971Z,23.45
2022-12-09T03:23:12.643Z,20.20
2022-12-09T03:25:48.892Z,22.17
2022-12-09T03:28:21.394Z,21.25
2022-12-09T03:30:49.361Z,20.02
2022-12-09T03:33:20.632Z,18.30
2022-12-09T03:36:00.773Z,20.15
2022-12-09T03:38:31.561Z,20.85
2022-12-09T03:41:05.384Z,22.15
2022-12-09T03:43:36.077Z,20.85
2022-12-09T03:46:03.453Z,21.80
2022-12-09T03:48:31.355Z,20.20
2022-12-09T03:51:24.400Z,21.73
2022-12-09T03:54:17.317Z,20.95
2022-12-09T03:56:49.275Z,20.90
2022-12-09T03:59:16.907Z,20.00
2022-12-09T04:01:45.343Z,19.58
2022-12-09T04:04:13.104Z,18.50
2022-12-09T04:06:40.106Z,19.80
2022-12-09T04:09:07.604Z,19.90
2022-12-09T04:11:35.039Z,18.45
2022-12-09T04:14:02.014Z,19.23
2022-12-09T04:16:29.359Z,20.35
2022-12-09T04:18:56.857Z,19.60
2022-12-09T04:21:24.008Z,18.65
2022-12-09T04:23:50.968Z,20.63
2022-12-09T04:26:21.866Z,19.92
2022-12-09T04:28:49.486Z,17.75
2022-12-09T04:31:18.203Z,18.45
2022-12-09T04:33:46.459Z,19.55
2022-12-09T04:36:16.642Z,19.33
2022-12-09T04:38:44.321Z,19.00
2022-12-09T04:41:11.758Z,19.35
2022-12-09T04:43:38.934Z,18.80
2022-12-09T04:46:10.502Z,20.52
2022-12-09T04:48:38.046Z,17.85
2022-12-09T04:51:05.008Z,18.70
2022-12-09T04:53:31.832Z,19.25
2022-12-09T04:56:00.590Z,18.50
2022-12-09T04:58:27.797Z,18.77
2022-12-09T05:00:55.300Z,18.25
2022-12-09T05:03:22.723Z,18.10
2022-12-09T05:05:50.069Z,18.48
2022-12-09T05:08:17.796Z,17.67
2022-12-09T05:10:49.997Z,19.42
2022-12-09T05:13:17.289Z,18.90
2022-12-09T05:15:44.404Z,20.33
2022-12-09T05:18:11.840Z,19.45
2022-12-09T05:20:40.649Z,19.15
2022-12-09T05:23:09.615Z,17.90
2022-12-09T05:25:37.247Z,19.00
2022-12-09T05:28:04.558Z,18.50
2022-12-09T05:30:31.816Z,18.88
2022-12-09T05:32:59.141Z,19.02
2022-12-09T05:35:26.231Z,20.80
2022-12-09T05:37:53.255Z,18.90
2022-12-09T05:40:20.127Z,20.77
2022-12-09T05:42:47.349Z,20.17
2022-12-09T05:45:14.378Z,21.25
2022-12-09T05:47:41.861Z,19.40
2022-12-09T05:50:10.323Z,20.05
2022-12-09T05:52:37.926Z,19.55
2022-12-09T05:55:07.135Z,20.17
2022-12-09T05:57:35.123Z,21.05
2022-12-09T06:00:02.902Z,20.88
2022-12-09T06:02:31.380Z,19.98
2022-12-09T06:04:58.713Z,18.30
2022-12-09T06:07:26.066Z,19.48
2022-12-09T06:09:53.337Z,18.23
2022-12-09T06:12:21.148Z,18.08
2022-12-09T06:14:48.236Z,18.80
2022-12-09T06:17:15.170Z,18.98
2022-12-09T06:19:42.464Z,17.75
2022-12-09T06:22:09.475Z,19.15
2022-12-09T06:24:36.620Z,19.98
2022-12-09T06:27:04.072Z,20.95
2022-12-09T06:29:31.392Z,19.60
2022-12-09T06:31:58.437Z,21.58
2022-12-09T06:34:25.653Z,20.92
2022-12-09T06:36:53.159Z,21.77
2022-12-09T06:39:20.158Z,22.17
2022-12-09T06:41:47.294Z,22.20
2022-12-09T06:44:19.868Z,24.83
2022-12-09T06:46:50.432Z,23.98
2022-12-09T06:49:18.078Z,22.17
2022-12-09T06:51:45.533Z,20.60
2022-12-09T06:54:13.503Z,21.02
2022-12-09T06:56:40.522Z,19.25
2022-12-09T06:59:10.006Z,20.40
2022-12-09T07:01:37.950Z,20.35
2022-12-09T07:04:06.738Z,19.42
2022-12-09T07:06:39.681Z,20.05
2022-12-09T07:09:10.768Z,18.95
2022-12-09T07:11:38.656Z,19.25
2022-12-09T07:14:06.052Z,18.77
2022-12-09T07:16:33.626Z,19.52
2022-12-09T07:19:01.168Z,18.40
2022-12-09T07:21:29.695Z,18.85
2022-12-09T07:24:00.212Z,17.23
2022-12-09T07:26:27.393Z,17.70
2022-12-09T07:28:54.414Z,17.52
2022-12-09T07:31:25.296Z,16.40
2022-12-09T07:33:54.459Z,17.20
2022-12-09T07:36:23.208Z,17.02
2022-12-09T07:39:21.839Z,15.50
2022-12-09T07:41:53.876Z,15.80
2022-12-09T07:44:21.082Z,15.00
2022-12-09T07:46:48.091Z,16.27
2022-12-09T07:49:15.982Z,13.88
2022-12-09T07:51:44.003Z,14.18
2022-12-09T07:54:15.794Z,15.82
2022-12-09T07:56:43.565Z,14.27
2022-12-09T07:59:12.333Z,13.10
2022-12-09T08:01:40.113Z,14.70
2022-12-09T08:04:08.156Z,14.20
2022-12-09T08:06:36.229Z,14.40
2022-12-09T08:09:07.157Z,14.20
2022-12-09T08:11:35.054Z,15.50
2022-12-09T08:14:10.818Z,17.10
2022-12-09T08:16:40.169Z,15.02
2022-12-09T08:19:08.175Z,15.38
2022-12-09T08:21:35.316Z,16.80
2022-12-09T08:24:06.046Z,15.65
2022-12-09T08:26:34.508Z,15.02
2022-12-09T08:29:02.133Z,14.98
2022-12-09T08:31:29.999Z,16.23
2022-12-09T08:33:58.639Z,16.02
2022-12-09T08:36:27.585Z,15.93
2022-12-09T08:38:56.188Z,17.33
2022-12-09T08:41:39.097Z,18.48
2022-12-09T08:44:14.831Z,16.98
2022-12-09T08:46:44.566Z,17.15
2022-12-09T08:49:12.821Z,18.15
2022-12-09T08:51:40.619Z,19.83
2022-12-09T08:54:07.763Z,19.17
2022-12-09T08:56:34.989Z,18.60
2022-12-09T08:59:02.997Z,18.38
2022-12-09T09:01:36.093Z,20.05
2022-12-09T09:04:09.577Z,19.08
2022-12-09T09:06:39.349Z,19.17
2022-12-09T09:09:07.915Z,18.30
2022-12-09T09:11:35.487Z,19.52
2022-12-09T09:14:04.924Z,21.10
2022-12-09T09:16:32.379Z,21.25
2022-12-09T09:19:00.471Z,19.35
2022-12-09T09:21:28.471Z,21.70
2022-12-09T09:23:55.597Z,20.08
2022-12-09T09:26:26.146Z,22.08
2022-12-09T09:28:55.712Z,21.75
2022-12-09T09:31:24.132Z,18.05
2022-12-09T09:33:51.975Z,20.35
2022-12-09T09:36:24.140Z,20.60
2022-12-09T09:38:53.974Z,21.27
2022-12-09T09:41:44.551Z,20.33
2022-12-09T09:44:34.686Z,20.98
2022-12-09T09:47:10.021Z,19.63
2022-12-09T09:49:53.752Z,20.27
2022-12-09T09:52:26.261Z,21.63
2022-12-09T09:54:53.345Z,20.23
2022-12-09T09:57:37.269Z,21.10
2022-12-09T10:00:27.859Z,21.75
2022-12-09T10:03:00.081Z,20.10
2022-12-09T10:06:00.784Z,19.48
2022-12-09T10:09:09.364Z,18.85
2022-12-09T10:11:57.595Z,21.25
2022-12-09T10:14:37.197Z,20.08
2022-12-09T10:17:25.362Z,20.17
2022-12-09T10:20:17.397Z,19.25
2022-12-09T10:22:48.246Z,21.67
2022-12-09T10:25:29.133Z,22.67
2022-12-09T10:28:05.155Z,20.42
2022-12-09T10:30:39.901Z,23.25
2022-12-09T10:33:13.901Z,23.65
2022-12-09T10:35:41.803Z,22.05
2022-12-09T10:38:17.578Z,23.65
2022-12-09T10:40:49.019Z,22.90
2022-12-09T10:43:38.868Z,21.85
2022-12-09T10:46:18.821Z,22.77
2022-12-09T10:48:50.185Z,23.38
2022-12-09T10:51:27.018Z,23.75
2022-12-09T10:53:58.940Z,25.83
2022-12-09T10:56:27.469Z,22.25
2022-12-09T10:59:24.220Z,22.88
2022-12-09T11:01:54.815Z,23.73
2022-12-09T11:04:28.131Z,22.75
2022-12-09T11:07:05.197Z,22.50
2022-12-09T11:09:35.552Z,23.38
2022-12-09T11:12:05.676Z,25.05
2022-12-09T11:14:41.416Z,22.98
2022-12-09T11:17:30.783Z,22.08
2022-12-09T11:20:07.982Z,22.98
2022-12-09T11:22:40.317Z,23.70
2022-12-09T11:25:28.766Z,24.23
2022-12-09T11:28:02.769Z,24.08
2022-12-09T11:31:12.063Z,23.98
2022-12-09T11:33:38.503Z,22.77
2022-12-09T11:36:10.551Z,21.92
2022-12-09T11:38:46.306Z,21.75
2022-12-09T11:41:35.448Z,22.52
2022-12-09T11:44:12.811Z,24.40
2022-12-09T11:46:40.252Z,23.38
2022-12-09T11:49:17.281Z,21.70
2022-12-09T11:51:59.882Z,21.90
2022-12-09T11:54:46.256Z,23.27
2022-12-09T11:57:30.503Z,20.52
2022-12-09T12:00:02.803Z,22.15
2022-12-09T12:02:40.291Z,23.52
2022-12-09T12:05:21.882Z,22.73
2022-12-09T12:08:01.189Z,22.58
2022-12-09T12:10:35.540Z,20.73
2022-12-09T12:13:22.785Z,20.90
2022-12-09T12:16:00.468Z,20.52
2022-12-09T12:18:31.143Z,22.00
2022-12-09T12:21:56.509Z,21.65
2022-12-09T12:24:32.273Z,19.50
2022-12-09T12:26:59.050Z,21.13
2022-12-09T12:29:45.420Z,18.70
2022-12-09T12:32:30.913Z,19.27
2022-12-09T12:35:03.914Z,19.00
2022-12-09T12:37:59.496Z,19.60
2022-12-09T12:41:01.568Z,19.48
2022-12-09T12:43:58.933Z,21.55
2022-12-09T12:46:42.359Z,19.48
2022-12-09T12:49:37.778Z,20.42
2022-12-09T12:56:00.073Z,19.52
2022-12-09T12:58:36.020Z,19.20
2022-12-09T13:01:29.998Z,20.58
2022-12-09T13:04:01.917Z,23.67
2022-12-09T13:06:38.367Z,22.52
2022-12-09T13:09:12.941Z,22.85
2022-12-09T13:12:05.458Z,22.67
2022-12-09T13:14:53.275Z,22.10
2022-12-09T13:17:26.991Z,22.85
2022-12-09T13:19:58.485Z,22.13
2022-12-09T13:22:31.766Z,24.50
2022-12-09T13:25:18.508Z,24.65
2022-12-09T13:27:59.718Z,22.95
2022-12-09T13:30:52.568Z,23.52
2022-12-09T13:33:42.184Z,24.50
2022-12-09T13:36:46.288Z,22.77
2022-12-09T13:39:34.092Z,23.30
2022-12-09T13:42:36.163Z,21.48
2022-12-09T13:45:06.784Z,23.25
2022-12-09T13:47:36.987Z,24.33
2022-12-09T13:50:08.202Z,24.90
2022-12-09T13:52:56.634Z,25.27
2022-12-09T13:55:33.949Z,21.77
2022-12-09T13:58:26.092Z,22.20
2022-12-09T14:01:37.737Z,23.80
2022-12-09T14:04:04.644Z,22.10
2022-12-09T14:06:47.602Z,20.55
2022-12-09T14:09:23.804Z,20.35
2022-12-09T14:11:55.813Z,20.50
2022-12-09T14:14:25.661Z,19.63
2022-12-09T14:16:56.381Z,20.60
2022-12-09T14:19:26.451Z,20.95
2022-12-09T14:22:24.315Z,20.58
2022-12-09T14:25:25.925Z,20.45
2022-12-09T14:28:13.833Z,21.17
2022-12-09T14:30:47.162Z,19.67
2022-12-09T14:33:44.419Z,20.85
2022-12-09T14:36:14.234Z,18.40
2022-12-09T14:39:07.924Z,19.73
2022-12-09T14:41:37.007Z,20.73
2022-12-09T14:44:12.670Z,19.67
2022-12-09T14:46:41.362Z,20.98
2022-12-09T14:49:21.014Z,21.08
2022-12-09T14:51:54.268Z,20.98
2022-12-09T14:54:28.926Z,21.25
2022-12-09T14:56:59.149Z,21.40
2022-12-09T14:59:28.226Z,20.98
2022-12-09T15:01:59.842Z,23.63
2022-12-09T15:04:29.884Z,19.20
2022-12-09T15:07:08.063Z,21.33
2022-12-09T15:09:34.907Z,19.52
2022-12-09T15:12:07.112Z,18.75
2022-12-09T15:17:00.732Z,16.92
2022-12-09T15:22:23.984Z,19.48
2022-12-09T15:24:52.640Z,21.27
2022-12-09T15:27:22.181Z,20.95
2022-12-09T15:29:50.045Z,20.90
2022-12-09T15:32:25.990Z,20.15
2022-12-09T15:34:54.355Z,19.05
2022-12-09T15:37:28.112Z,20.88
2022-12-09T15:40:03.829Z,20.77
2022-12-09T15:42:34.289Z,20.88
2022-12-09T15:45:09.959Z,19.92
2022-12-09T15:47:46.247Z,20.15
2022-12-09T15:50:18.665Z,23.10
2022-12-09T15:52:54.940Z,20.77
2022-12-09T15:55:41.552Z,21.08
2022-12-09T15:58:14.505Z,20.40
2022-12-09T16:00:47.091Z,20.92
2022-12-09T16:03:18.827Z,18.88
2022-12-09T16:05:54.918Z,21.45
2022-12-09T16:08:22.726Z,23.85
2022-12-09T16:10:51.920Z,23.08
2022-12-09T16:13:21.409Z,22.15
2022-12-09T16:15:53.361Z,22.02
2022-12-09T16:18:35.636Z,22.48
2022-12-09T16:21:37.709Z,22.15
2022-12-09T16:24:12.777Z,23.65
2022-12-09T16:26:49.516Z,22.27
2022-12-09T16:29:28.509Z,23.05
2022-12-09T16:32:34.277Z,21.10
2022-12-09T16:35:28.782Z,23.48
2022-12-09T16:37:58.574Z,23.02
2022-12-09T16:40:25.487Z,20.83
2022-12-09T16:43:15.180Z,23.80
2022-12-09T16:45:45.673Z,24.42
2022-12-09T16:48:13.471Z,24.83
2022-12-09T16:50:47.149Z,21.30
2022-12-09T16:53:20.228Z,23.35
2022-12-09T16:55:59.778Z,21.73
2022-12-09T16:58:32.466Z,23.95
2022-12-09T17:01:00.895Z,24.33
2022-12-09T17:03:47.394Z,25.27
2022-12-09T17:06:16.554Z,24.70
2022-12-09T17:08:44.259Z,25.10
2022-12-09T17:11:11.721Z,25.13
2022-12-09T17:13:39.256Z,23.10
2022-12-09T17:16:07.306Z,23.35
2022-12-09T17:18:34.765Z,25.67
2022-12-09T17:21:04.400Z,24.90
2022-12-09T17:23:37.721Z,27.48
2022-12-09T17:26:09.371Z,24.30
2022-12-09T17:28:37.772Z,24.63
2022-12-09T17:31:13.201Z,22.90
2022-12-09T17:33:40.011Z,23.73
2022-12-09T17:36:07.566Z,23.48
2022-12-09T17:38:34.620Z,33.00
2022-12-09T17:41:06.927Z,33.15
2022-12-09T17:43:34.390Z,30.13
2022-12-09T17:46:03.013Z,28.63
2022-12-09T17:48:31.661Z,32.35
2022-12-09T17:50:58.527Z,31.13
2022-12-09T17:53:25.460Z,25.55
2022-12-09T17:55:52.245Z,24.27
2022-12-09T17:58:19.050Z,24.33
2022-12-09T18:00:47.889Z,22.08
2022-12-09T18:03:27.379Z,23.20
2022-12-09T18:06:00.268Z,22.20
2022-12-09T18:08:29.729Z,24.63
2022-12-09T18:10:56.839Z,22.92
2022-12-09T18:13:23.673Z,22.20
2022-12-09T18:15:54.175Z,22.33
2022-12-09T18:18:21.805Z,25.15
2022-12-09T18:20:48.611Z,23.67
2022-12-09T18:23:15.490Z,24.55
2022-12-09T18:25:42.823Z,24.85
2022-12-09T18:28:09.719Z,25.65
2022-12-09T18:30:39.659Z,24.95
2022-12-09T18:33:06.690Z,23.52
2022-12-09T18:35:33.788Z,23.35
2022-12-09T18:38:09.601Z,24.90
2022-12-09T18:41:00.872Z,25.30
2022-12-09T18:43:33.437Z,25.95
2022-12-09T18:46:09.497Z,24.73
2022-12-09T18:48:36.650Z,25.40
2022-12-09T18:51:03.678Z,23.40
2022-12-09T18:53:30.943Z,23.27
2022-12-09T18:55:57.733Z,26.08
2022-12-09T18:58:42.825Z,23.50
2022-12-09T19:01:25.032Z,23.50
2022-12-09T19:03:54.284Z,22.88
2022-12-09T19:06:30.408Z,25.08
2022-12-09T19:09:00.608Z,31.33
2022-12-09T19:11:29.388Z,38.42
2022-12-09T19:13:56.899Z,32.00
2022-12-09T19:16:25.171Z,30.20
2022-12-09T19:18:53.731Z,28.23
2022-12-09T19:21:22.397Z,28.75
2022-12-09T19:23:49.778Z,26.15
2022-12-09T19:26:18.272Z,26.13
2022-12-09T19:28:48.171Z,25.35
2022-12-09T19:31:18.455Z,25.20
2022-12-09T19:33:45.595Z,25.42
2022-12-09T19:36:12.822Z,25.95
2022-12-09T19:38:40.503Z,25.23
2022-12-09T19:41:08.231Z,26.20
2022-12-09T19:43:35.373Z,24.52
2022-12-09T19:46:10.741Z,27.27
2022-12-09T19:48:39.655Z,27.10
2022-12-09T19:51:09.136Z,24.58
2022-12-09T19:53:37.680Z,24.15
2022-12-09T19:56:07.202Z,24.77
2022-12-09T19:58:37.071Z,24.08
2022-12-09T20:01:20.991Z,24.98
2022-12-09T20:03:50.710Z,25.00
2022-12-09T20:06:19.941Z,25.02
2022-12-09T20:08:47.456Z,26.45
2022-12-09T20:11:21.057Z,25.77
2022-12-09T20:13:48.124Z,24.92
2022-12-09T20:16:17.887Z,27.13
2022-12-09T20:18:46.715Z,29.10
2022-12-09T20:21:15.011Z,28.38
2022-12-09T20:23:42.830Z,28.75
2022-12-09T20:26:14.294Z,24.77
2022-12-09T20:28:43.256Z,24.75
2022-12-09T20:31:14.349Z,25.38
2022-12-09T20:33:41.718Z,25.45
2022-12-09T20:36:11.364Z,25.00
2022-12-09T20:38:39.270Z,21.80
2022-12-09T20:41:09.942Z,25.00
2022-12-09T20:43:40.575Z,23.92
2022-12-09T20:46:22.000Z,22.55
2022-12-09T20:48:50.004Z,23.33
2022-12-09T20:51:25.772Z,25.83
2022-12-09T20:53:53.851Z,25.38
2022-12-09T20:56:22.207Z,26.80
2022-12-09T20:58:51.108Z,28.60
2022-12-09T21:01:21.794Z,32.30
2022-12-09T21:03:49.414Z,30.02
2022-12-09T21:06:18.251Z,26.20
2022-12-09T21:08:45.568Z,24.33
2022-12-09T21:11:18.329Z,25.13
2022-12-09T21:13:48.556Z,24.70
2022-12-09T21:16:26.673Z,24.58
2022-12-09T21:18:55.716Z,25.02
2022-12-09T21:21:23.769Z,23.95
2022-12-09T21:23:54.210Z,24.15
2022-12-09T21:26:23.419Z,25.13
2022-12-09T21:28:51.315Z,27.15
2022-12-09T21:31:25.345Z,25.73
2022-12-09T21:33:56.023Z,26.80
2022-12-09T21:36:25.738Z,28.50
2022-12-09T21:38:53.822Z,26.67
2022-12-09T21:41:27.384Z,24.70
2022-12-09T21:43:58.080Z,25.83
2022-12-09T21:46:27.109Z,25.63
2022-12-09T21:49:01.556Z,27.95
2022-12-09T21:51:30.561Z,26.85
2022-12-09T21:53:57.584Z,28.35
2022-12-09T21:56:26.901Z,25.67
2022-12-09T21:58:55.721Z,27.17
2022-12-09T22:01:23.902Z,27.25
2022-12-09T22:03:50.744Z,27.70
2022-12-09T22:06:18.412Z,28.02
2022-12-09T22:08:45.501Z,27.35
2022-12-09T22:11:21.448Z,26.33
2022-12-09T22:13:48.450Z,25.23
2022-12-09T22:16:18.335Z,27.20
2022-12-09T22:18:45.614Z,24.67
2022-12-09T22:21:30.625Z,27.38
2022-12-09T22:23:59.798Z,27.88
2022-12-09T22:26:27.369Z,29.60
2022-12-09T22:28:55.083Z,27.80
2022-12-09T22:31:27.473Z,29.75
2022-12-09T22:33:56.448Z,28.23
2022-12-09T22:36:23.576Z,29.13
2022-12-09T22:38:50.591Z,28.13
2022-12-09T22:41:23.206Z,28.77
2022-12-09T22:43:50.911Z,29.33
2022-12-09T22:46:20.497Z,27.83
2022-12-09T22:48:48.307Z,27.92
2022-12-09T22:51:18.159Z,28.17
2022-12-09T22:53:45.640Z,28.30
2022-12-09T22:56:12.894Z,29.58
2022-12-09T22:58:40.383Z,27.63
2022-12-09T23:01:35.620Z,29.85
2022-12-09T23:04:03.755Z,27.85
2022-12-09T23:06:30.930Z,30.55
2022-12-09T23:08:58.233Z,29.63
2022-12-09T23:11:27.128Z,32.10
2022-12-09T23:13:54.588Z,31.70
2022-12-09T23:16:23.557Z,34.08
2022-12-09T23:18:51.386Z,28.40
2022-12-09T23:21:30.272Z,30.27
2022-12-09T23:24:00.305Z,29.80
2022-12-09T23:26:29.227Z,33.72
2022-12-09T23:28:58.162Z,31.67
2022-12-09T23:31:29.595Z,32.22
2022-12-09T23:33:57.542Z,24.02
2022-12-09T23:36:27.621Z,32.42
2022-12-09T23:38:54.829Z,33.38
2022-12-09T23:41:23.546Z,31.67
2022-12-09T23:43:51.710Z,33.08
2022-12-09T23:46:21.457Z,31.08
2022-12-09T23:48:50.278Z,33.00
2022-12-09T23:51:20.169Z,29.10
2022-12-09T23:53:49.375Z,29.27
2022-12-09T23:56:21.617Z,28.65
